createdAt,value
2022-09-09T00:02:14.811Z,17.27
2022-09-09T00:04:42.469Z,17.43
2022-09-09T00:07:41.956Z,17.43
2022-09-09T00:10:39.770Z,17.34
2022-09-09T00:13:19.271Z,17.23
2022-09-09T00:16:05.044Z,17.37
2022-09-09T00:19:04.920Z,17.34
2022-09-09T00:21:37.028Z,17.25
2022-09-09T00:24:20.645Z,17.12
2022-09-09T00:26:52.043Z,17.23
2022-09-09T00:29:26.637Z,17.23
2022-09-09T00:32:00.803Z,17.03
2022-09-09T00:34:28.879Z,17.12
2022-09-09T00:36:57.152Z,16.99
2022-09-09T00:39:38.396Z,16.98
2022-09-09T00:42:13.514Z,17.15
2022-09-09T00:44:52.568Z,16.91
2022-09-09T00:47:29.546Z,16.86
2022-09-09T00:50:01.582Z,16.91
2022-09-09T00:52:36.738Z,17.09
2022-09-09T00:55:06.938Z,17.03
2022-09-09T00:57:36.083Z,17.03
2022-09-09T01:00:25.806Z,17.00
2022-09-09T01:02:52.278Z,16.98
2022-09-09T01:05:31.202Z,16.72
2022-09-09T01:07:58.857Z,16.90
2022-09-09T01:10:42.127Z,16.88
2022-09-09T01:13:17.882Z,16.86
2022-09-09T01:15:46.315Z,16.84
2022-09-09T01:18:16.671Z,16.61
2022-09-09T01:21:03.082Z,16.78
2022-09-09T01:23:32.296Z,16.80
2022-09-09T01:26:44.748Z,16.74
2022-09-09T01:29:22.333Z,16.71
2022-09-09T01:32:04.071Z,16.55
2022-09-09T01:34:41.441Z,16.77
2022-09-09T01:37:11.512Z,16.79
2022-09-09T01:39:41.164Z,16.79
2022-09-09T01:42:12.687Z,16.81
2022-09-09T01:44:40.384Z,16.82
2022-09-09T01:47:07.334Z,16.80
2022-09-09T01:49:36.329Z,16.86
2022-09-09T01:52:10.364Z,16.88
2022-09-09T01:54:38.916Z,16.88
2022-09-09T01:57:28.417Z,16.89
2022-09-09T02:00:09.152Z,16.91
2022-09-09T02:03:05.709Z,16.92
2022-09-09T02:06:01.209Z,16.93
2022-09-09T02:08:49.817Z,16.95
2022-09-09T02:11:26.175Z,16.74
2022-09-09T02:14:03.755Z,16.79
2022-09-09T02:16:33.464Z,16.97
2022-09-09T02:19:30.662Z,16.94
2022-09-09T02:22:03.953Z,16.97
2022-09-09T02:24:35.091Z,16.99
2022-09-09T02:27:15.177Z,17.01
2022-09-09T02:29:44.073Z,16.90
2022-09-09T02:32:20.450Z,16.83
2022-09-09T02:34:51.791Z,17.02
2022-09-09T02:37:19.850Z,17.03
2022-09-09T02:39:49.840Z,17.04
2022-09-09T02:42:19.931Z,17.03
2022-09-09T02:44:47.034Z,17.06
2022-09-09T02:47:32.448Z,17.05
2022-09-09T02:50:14.326Z,16.86
2022-09-09T02:53:06.703Z,17.07
2022-09-09T02:55:42.616Z,17.01
2022-09-09T02:58:15.294Z,17.04
2022-09-09T03:00:41.894Z,17.09
2022-09-09T03:03:09.960Z,17.12
2022-09-09T03:05:38.251Z,17.09
2022-09-09T03:08:06.428Z,17.14
2022-09-09T03:10:33.568Z,17.16
2022-09-09T03:13:00.112Z,17.16
2022-09-09T03:15:29.520Z,17.18
2022-09-09T03:17:56.682Z,17.20
2022-09-09T03:20:28.701Z,17.21
2022-09-09T03:22:56.204Z,17.23
2022-09-09T03:25:23.479Z,17.25
2022-09-09T03:27:51.774Z,17.27
2022-09-09T03:30:18.565Z,17.28
2022-09-09T03:32:48.914Z,17.29
2022-09-09T03:35:15.916Z,17.28
2022-09-09T03:37:42.735Z,17.29
2022-09-09T03:40:11.710Z,17.25
2022-09-09T03:42:39.392Z,17.31
2022-09-09T03:45:08.462Z,17.31
2022-09-09T03:47:34.983Z,17.30
2022-09-09T03:50:06.431Z,17.25
2022-09-09T03:52:36.011Z,17.29
2022-09-09T03:55:03.175Z,17.30
2022-09-09T03:57:29.685Z,17.28
2022-09-09T03:59:56.280Z,17.27
2022-09-09T04:02:22.923Z,17.23
2022-09-09T04:04:49.472Z,17.19
2022-09-09T04:07:16.195Z,17.17
2022-09-09T04:09:43.723Z,17.14
2022-09-09T04:12:10.296Z,17.14
2022-09-09T04:14:36.936Z,17.07
2022-09-09T04:17:05.701Z,17.09
2022-09-09T04:19:32.158Z,17.05
2022-09-09T04:21:58.764Z,17.03
2022-09-09T04:24:25.241Z,17.00
2022-09-09T04:26:52.314Z,17.00
2022-09-09T04:29:18.763Z,16.95
2022-09-09T04:31:45.342Z,16.95
2022-09-09T04:34:12.976Z,16.94
2022-09-09T04:36:40.091Z,16.91
2022-09-09T04:39:07.025Z,16.89
2022-09-09T04:41:33.564Z,16.83
2022-09-09T04:44:00.084Z,16.85
2022-09-09T04:46:26.835Z,16.78
2022-09-09T04:48:53.355Z,16.84
2022-09-09T04:51:20.165Z,16.83
2022-09-09T04:53:48.740Z,16.83
2022-09-09T04:56:17.735Z,16.81
2022-09-09T04:58:51.489Z,16.82
2022-09-09T05:01:22.013Z,16.81
2022-09-09T05:03:50.391Z,16.77
2022-09-09T05:06:22.196Z,16.72
2022-09-09T05:08:51.952Z,16.79
2022-09-09T05:11:25.221Z,16.79
2022-09-09T05:13:54.973Z,16.80
2022-09-09T05:16:22.288Z,16.75
2022-09-09T05:18:50.003Z,16.75
2022-09-09T05:21:18.411Z,16.73
2022-09-09T05:23:46.093Z,16.70
2022-09-09T05:26:17.476Z,16.56
2022-09-09T05:28:46.569Z,16.68
2022-09-09T05:31:14.928Z,16.68
2022-09-09T05:33:45.363Z,16.44
2022-09-09T05:36:14.827Z,16.56
2022-09-09T05:38:42.287Z,16.63
2022-09-09T05:41:10.018Z,16.64
2022-09-09T05:43:36.537Z,16.63
2022-09-09T05:46:08.443Z,16.39
2022-09-09T05:48:37.948Z,16.38
2022-09-09T05:51:06.881Z,16.41
2022-09-09T05:53:34.079Z,16.55
2022-09-09T05:56:06.469Z,16.49
2022-09-09T05:58:35.663Z,16.56
2022-09-09T06:01:10.243Z,16.31
2022-09-09T06:03:40.204Z,16.41
2022-09-09T06:06:09.257Z,16.42
2022-09-09T06:08:38.467Z,16.19
2022-09-09T06:11:10.231Z,16.40
2022-09-09T06:13:37.966Z,16.41
2022-09-09T06:16:04.730Z,16.41
2022-09-09T06:18:31.372Z,16.42
2022-09-09T06:21:00.323Z,16.44
2022-09-09T06:23:28.143Z,16.47
2022-09-09T06:26:14.674Z,16.48
2022-09-09T06:28:41.664Z,16.49
2022-09-09T06:31:10.939Z,16.27
2022-09-09T06:33:40.180Z,16.43
2022-09-09T06:36:10.637Z,16.44
2022-09-09T06:38:37.236Z,16.41
2022-09-09T06:41:04.417Z,16.37
2022-09-09T06:43:32.437Z,16.34
2022-09-09T06:46:04.071Z,16.27
2022-09-09T06:48:32.775Z,16.28
2022-09-09T06:51:06.512Z,16.23
2022-09-09T06:53:34.958Z,16.19
2022-09-09T06:56:03.837Z,16.06
2022-09-09T06:58:31.140Z,16.02
2022-09-09T07:01:07.657Z,16.03
2022-09-09T07:03:35.387Z,15.99
2022-09-09T07:06:02.543Z,15.94
2022-09-09T07:08:29.163Z,15.90
2022-09-09T07:11:02.373Z,15.88
2022-09-09T07:13:29.139Z,15.86
2022-09-09T07:15:56.711Z,15.84
2022-09-09T07:18:23.204Z,15.84
2022-09-09T07:20:56.380Z,15.84
2022-09-09T07:23:24.193Z,15.85
2022-09-09T07:25:51.295Z,15.85
2022-09-09T07:28:17.951Z,15.86
2022-09-09T07:30:44.644Z,15.89
2022-09-09T07:33:11.131Z,15.89
2022-09-09T07:35:37.601Z,15.90
2022-09-09T07:38:04.746Z,15.90
2022-09-09T07:40:31.224Z,15.94
2022-09-09T07:42:58.121Z,15.98
2022-09-09T07:45:24.606Z,16.02
2022-09-09T07:47:51.142Z,16.05
2022-09-09T07:50:18.184Z,16.08
2022-09-09T07:52:44.722Z,16.09
2022-09-09T07:55:11.301Z,16.11
2022-09-09T07:57:38.058Z,16.09
2022-09-09T08:00:05.663Z,16.09
2022-09-09T08:02:38.800Z,16.09
2022-09-09T08:05:05.647Z,15.98
2022-09-09T08:07:32.300Z,16.13
2022-09-09T08:09:59.002Z,16.11
2022-09-09T08:12:29.811Z,16.13
2022-09-09T08:14:57.048Z,16.15
2022-09-09T08:17:27.564Z,16.16
2022-09-09T08:19:54.202Z,16.19
2022-09-09T08:22:24.483Z,16.20
2022-09-09T08:24:51.155Z,16.21
2022-09-09T08:27:18.484Z,16.22
2022-09-09T08:29:44.933Z,16.23
2022-09-09T08:32:11.508Z,16.25
2022-09-09T08:34:41.196Z,16.29
2022-09-09T08:37:11.555Z,16.34
2022-09-09T08:39:40.519Z,16.39
2022-09-09T08:42:24.896Z,16.33
2022-09-09T08:45:23.862Z,16.56
2022-09-09T08:48:26.453Z,16.65
2022-09-09T08:50:53.248Z,16.70
2022-09-09T08:53:30.800Z,16.64
2022-09-09T08:56:04.553Z,16.66
2022-09-09T08:59:02.174Z,16.95
2022-09-09T09:02:27.189Z,16.99
2022-09-09T09:05:06.270Z,16.93
2022-09-09T09:08:15.787Z,17.08
2022-09-09T09:10:49.364Z,17.16
2022-09-09T09:13:27.809Z,17.19
2022-09-09T09:16:02.673Z,17.29
2022-09-09T09:18:29.500Z,17.37
2022-09-09T09:21:05.176Z,17.48
2022-09-09T09:23:46.250Z,17.56
2022-09-09T09:26:12.883Z,17.60
2022-09-09T09:28:41.019Z,17.71
2022-09-09T09:31:13.873Z,17.80
2022-09-09T09:33:52.407Z,17.86
2022-09-09T09:36:24.449Z,17.91
2022-09-09T09:41:47.342Z,17.98
2022-09-09T09:44:28.766Z,18.02
2022-09-09T09:47:19.483Z,17.94
2022-09-09T09:49:57.459Z,18.12
2022-09-09T09:52:27.768Z,17.99
2022-09-09T09:54:56.517Z,18.25
2022-09-09T09:57:31.950Z,18.29
2022-09-09T10:00:23.597Z,18.35
2022-09-09T10:03:22.175Z,18.23
2022-09-09T10:05:49.792Z,18.46
2022-09-09T10:08:18.322Z,18.52
2022-09-09T10:10:53.903Z,18.66
2022-09-09T10:13:26.425Z,18.84
2022-09-09T10:16:11.290Z,19.03
2022-09-09T10:18:53.903Z,19.20
2022-09-09T10:21:27.987Z,19.52
2022-09-09T10:24:09.856Z,20.02
2022-09-09T10:26:40.857Z,20.29
2022-09-09T10:29:22.658Z,20.54
2022-09-09T10:32:13.459Z,20.71
2022-09-09T10:34:48.987Z,21.03
2022-09-09T10:37:37.680Z,21.22
2022-09-09T10:40:39.187Z,21.55
2022-09-09T10:43:31.686Z,21.90
2022-09-09T10:46:19.901Z,22.11
2022-09-09T10:49:08.869Z,22.00
2022-09-09T10:52:03.901Z,22.16
2022-09-09T10:54:57.183Z,22.08
2022-09-09T10:57:37.225Z,22.02
2022-09-09T11:00:16.407Z,21.80
2022-09-09T11:02:42.882Z,21.86
2022-09-09T11:05:22.823Z,21.76
2022-09-09T11:07:54.252Z,21.75
2022-09-09T11:10:59.083Z,21.72
2022-09-09T11:13:49.417Z,21.47
2022-09-09T11:16:51.339Z,21.60
2022-09-09T11:19:43.191Z,21.52
2022-09-09T11:22:21.839Z,21.52
2022-09-09T11:24:59.341Z,21.36
2022-09-09T11:27:32.724Z,21.50
2022-09-09T11:33:18.616Z,21.22
2022-09-09T11:36:19.155Z,21.48
2022-09-09T11:38:47.774Z,21.50
2022-09-09T11:41:20.980Z,21.40
2022-09-09T11:43:53.089Z,21.50
2022-09-09T11:46:32.487Z,21.56
2022-09-09T11:49:02.063Z,21.40
2022-09-09T11:51:30.912Z,21.56
2022-09-09T11:54:28.951Z,21.51
2022-09-09T11:56:55.712Z,21.41
2022-09-09T11:59:33.407Z,21.26
2022-09-09T12:02:19.607Z,21.13
2022-09-09T12:04:58.453Z,21.15
2022-09-09T12:07:34.079Z,21.17
2022-09-09T12:10:21.482Z,20.99
2022-09-09T12:12:48.046Z,21.02
2022-09-09T12:15:24.644Z,21.08
2022-09-09T12:17:53.791Z,20.93
2022-09-09T12:20:20.286Z,21.18
2022-09-09T12:23:11.619Z,21.21
2022-09-09T12:25:56.815Z,21.30
2022-09-09T12:28:38.178Z,21.33
2022-09-09T12:31:26.066Z,21.44
2022-09-09T12:33:52.519Z,21.45
2022-09-09T12:36:33.451Z,21.50
2022-09-09T12:39:42.902Z,21.51
2022-09-09T12:42:20.453Z,21.51
2022-09-09T12:44:59.830Z,21.80
2022-09-09T12:47:49.396Z,21.89
2022-09-09T12:50:19.777Z,21.76
2022-09-09T12:52:47.906Z,21.94
2022-09-09T12:55:31.185Z,21.95
2022-09-09T12:57:59.408Z,21.81
2022-09-09T13:00:26.191Z,22.01
2022-09-09T13:02:58.871Z,22.02
2022-09-09T13:05:26.757Z,22.06
2022-09-09T13:08:01.343Z,22.09
2022-09-09T13:10:37.016Z,22.16
2022-09-09T13:13:20.557Z,22.11
2022-09-09T13:15:58.774Z,22.30
2022-09-09T13:18:31.747Z,22.42
2022-09-09T13:20:58.741Z,22.50
2022-09-09T13:23:30.284Z,22.37
2022-09-09T13:26:20.873Z,22.58
2022-09-09T13:28:47.362Z,22.66
2022-09-09T13:31:43.320Z,22.65
2022-09-09T13:34:31.590Z,22.69
2022-09-09T13:37:02.197Z,22.76
2022-09-09T13:39:29.014Z,22.90
2022-09-09T13:41:55.845Z,23.06
2022-09-09T13:44:26.281Z,23.24
2022-09-09T13:47:26.520Z,23.21
2022-09-09T13:49:53.047Z,23.41
2022-09-09T13:52:20.296Z,23.46
2022-09-09T13:54:51.227Z,23.47
2022-09-09T13:57:25.004Z,23.48
2022-09-09T14:00:04.548Z,23.45
2022-09-09T14:02:32.317Z,23.40
2022-09-09T14:04:58.914Z,23.36
2022-09-09T14:07:25.454Z,23.31
2022-09-09T14:09:51.918Z,23.29
2022-09-09T14:12:18.573Z,23.36
2022-09-09T14:14:45.150Z,23.38
2022-09-09T14:17:11.799Z,23.41
2022-09-09T14:19:38.252Z,23.41
2022-09-09T14:22:04.868Z,23.43
2022-09-09T14:24:31.373Z,23.51
2022-09-09T14:26:57.944Z,23.66
2022-09-09T14:29:24.411Z,23.76
2022-09-09T14:31:50.856Z,23.98
2022-09-09T14:34:17.533Z,23.99
2022-09-09T14:36:43.976Z,23.99
2022-09-09T14:39:10.421Z,23.87
2022-09-09T14:41:36.891Z,23.71
2022-09-09T14:44:03.505Z,23.59
2022-09-09T14:46:30.028Z,23.52
2022-09-09T14:48:56.481Z,23.38
2022-09-09T14:51:25.316Z,23.15
2022-09-09T14:53:53.778Z,23.15
2022-09-09T14:56:22.648Z,22.73
2022-09-09T14:58:49.443Z,22.89
2022-09-09T15:01:18.273Z,22.83
2022-09-09T15:04:00.565Z,22.54
2022-09-09T15:06:29.236Z,22.60
2022-09-09T15:08:56.128Z,22.40
2022-09-09T15:11:22.600Z,22.36
2022-09-09T15:13:52.542Z,22.10
2022-09-09T15:16:20.663Z,22.13
2022-09-09T15:18:47.662Z,21.93
2022-09-09T15:21:17.090Z,21.86
2022-09-09T15:23:44.007Z,21.72
2022-09-09T15:26:10.792Z,21.60
2022-09-09T15:28:38.715Z,21.55
2022-09-09T15:31:20.452Z,21.39
2022-09-09T15:33:51.596Z,21.40
2022-09-09T15:36:22.441Z,21.32
2022-09-09T15:38:49.897Z,21.27
2022-09-09T15:41:17.801Z,21.21
2022-09-09T15:43:49.350Z,21.07
2022-09-09T15:46:18.812Z,21.21
2022-09-09T15:48:47.351Z,21.17
2022-09-09T15:51:37.886Z,21.09
2022-09-09T15:54:02.151Z,21.06
2022-09-09T15:56:30.023Z,21.05
2022-09-09T15:58:57.493Z,20.98
2022-09-09T16:01:24.635Z,21.05
2022-09-09T16:03:51.250Z,21.20
2022-09-09T16:06:19.712Z,21.35
2022-09-09T16:08:47.003Z,21.53
2022-09-09T16:11:15.958Z,21.41
2022-09-09T16:13:46.808Z,21.72
2022-09-09T16:16:18.823Z,22.13
2022-09-09T16:18:47.857Z,22.44
2022-09-09T16:21:29.519Z,23.01
2022-09-09T16:23:57.458Z,23.71
2022-09-09T16:26:23.981Z,24.38
2022-09-09T16:28:50.796Z,24.86
2022-09-09T16:31:20.269Z,25.31
2022-09-09T16:33:47.282Z,25.75
2022-09-09T16:36:16.562Z,26.10
2022-09-09T16:38:43.894Z,26.19
2022-09-09T16:41:11.894Z,26.06
2022-09-09T16:43:39.179Z,25.74
2022-09-09T16:46:17.697Z,25.13
2022-09-09T16:48:45.831Z,24.93
2022-09-09T16:51:16.254Z,24.45
2022-09-09T16:53:43.541Z,24.28
2022-09-09T16:56:13.195Z,24.02
2022-09-09T16:58:39.939Z,23.74
2022-09-09T17:01:06.852Z,23.53
2022-09-09T17:03:33.402Z,23.32
2022-09-09T17:06:00.319Z,23.13
2022-09-09T17:08:26.809Z,22.95
2022-09-09T17:10:53.286Z,22.84
2022-09-09T17:13:19.728Z,22.66
2022-09-09T17:15:46.368Z,22.51
2022-09-09T17:18:13.883Z,22.34
2022-09-09T17:20:46.717Z,21.88
2022-09-09T17:23:14.010Z,21.93
2022-09-09T17:25:40.880Z,21.80
2022-09-09T17:28:07.373Z,21.62
2022-09-09T17:30:37.590Z,21.47
2022-09-09T17:33:04.982Z,21.34
2022-09-09T17:35:32.320Z,21.21
2022-09-09T17:37:58.809Z,21.06
2022-09-09T17:40:25.403Z,20.96
2022-09-09T17:42:51.895Z,20.81
2022-09-09T17:45:18.346Z,20.74
2022-09-09T17:47:44.777Z,20.62
2022-09-09T17:50:11.415Z,20.42
2022-09-09T17:52:38.029Z,20.38
2022-09-09T17:55:05.720Z,20.26
2022-09-09T17:57:32.234Z,20.22
2022-09-09T17:59:58.669Z,20.14
2022-09-09T18:02:25.190Z,20.13
2022-09-09T18:04:51.632Z,20.10
2022-09-09T18:07:18.087Z,20.00
2022-09-09T18:09:44.630Z,20.01
2022-09-09T18:12:11.097Z,19.99
2022-09-09T18:14:37.538Z,19.97
2022-09-09T18:17:04.308Z,19.94
2022-09-09T18:19:32.452Z,19.88
2022-09-09T18:22:02.344Z,19.88
2022-09-09T18:24:30.564Z,19.84
2022-09-09T18:26:57.070Z,19.81
2022-09-09T18:29:24.317Z,19.76
2022-09-09T18:31:52.180Z,19.67
2022-09-09T18:34:20.298Z,19.61
2022-09-09T18:36:51.369Z,19.49
2022-09-09T18:39:19.048Z,19.51
2022-09-09T18:41:50.625Z,19.25
2022-09-09T18:44:20.810Z,19.42
2022-09-09T18:46:47.911Z,19.42
2022-09-09T18:49:15.077Z,19.37
2022-09-09T18:51:43.121Z,19.31
2022-09-09T18:54:15.963Z,19.30
2022-09-09T18:56:42.731Z,19.23
2022-09-09T18:59:12.728Z,19.18
2022-09-09T19:01:39.534Z,19.18
2022-09-09T19:04:07.933Z,18.97
2022-09-09T19:06:38.552Z,18.88
2022-09-09T19:09:05.627Z,19.06
2022-09-09T19:11:32.810Z,19.04
2022-09-09T19:14:01.951Z,18.99
2022-09-09T19:16:32.975Z,18.93
2022-09-09T19:19:05.370Z,18.95
2022-09-09T19:21:34.106Z,18.92
2022-09-09T19:24:10.518Z,18.71
2022-09-09T19:26:41.160Z,18.66
2022-09-09T19:29:08.908Z,18.85
2022-09-09T19:31:36.030Z,18.68
2022-09-09T19:34:02.622Z,18.76
2022-09-09T19:36:29.209Z,18.73
2022-09-09T19:38:56.044Z,18.71
2022-09-09T19:41:25.614Z,18.66
2022-09-09T19:43:55.559Z,18.66
2022-09-09T19:46:22.057Z,18.63
2022-09-09T19:48:48.617Z,18.59
2022-09-09T19:51:25.843Z,18.36
2022-09-09T19:53:54.780Z,18.54
2022-09-09T19:56:21.878Z,18.52
2022-09-09T19:58:49.196Z,18.50
2022-09-09T20:01:18.539Z,18.42
2022-09-09T20:03:47.508Z,18.47
2022-09-09T20:06:18.020Z,18.38
2022-09-09T20:08:46.833Z,18.19
2022-09-09T20:11:14.830Z,18.36
2022-09-09T20:13:41.858Z,18.35
2022-09-09T20:16:14.749Z,18.33
2022-09-09T20:18:44.097Z,18.14
2022-09-09T20:21:12.181Z,18.25
2022-09-09T20:23:39.182Z,18.21
2022-09-09T20:26:11.866Z,17.82
2022-09-09T20:28:40.188Z,18.15
2022-09-09T20:31:13.139Z,17.98
2022-09-09T20:33:40.398Z,18.09
2022-09-09T20:36:09.972Z,18.05
2022-09-09T20:38:36.561Z,18.02
2022-09-09T20:41:04.610Z,18.00
2022-09-09T20:43:31.051Z,17.98
2022-09-09T20:46:01.817Z,17.75
2022-09-09T20:48:28.357Z,17.87
2022-09-09T20:50:54.833Z,17.90
2022-09-09T20:53:21.328Z,17.77
2022-09-09T20:55:47.744Z,17.88
2022-09-09T20:58:14.278Z,17.83
2022-09-09T21:00:40.714Z,17.82
2022-09-09T21:03:07.513Z,17.77
2022-09-09T21:05:33.966Z,17.75
2022-09-09T21:08:00.440Z,17.69
2022-09-09T21:10:26.888Z,17.70
2022-09-09T21:12:53.381Z,17.67
2022-09-09T21:15:19.777Z,17.67
2022-09-09T21:17:46.235Z,17.62
2022-09-09T21:20:12.679Z,17.56
2022-09-09T21:22:39.180Z,17.59
2022-09-09T21:25:06.203Z,17.57
2022-09-09T21:27:32.752Z,17.54
2022-09-09T21:29:59.172Z,17.55
2022-09-09T21:32:25.623Z,17.53
2022-09-09T21:34:52.072Z,17.53
2022-09-09T21:37:18.577Z,17.52
2022-09-09T21:39:45.006Z,17.50
2022-09-09T21:42:11.510Z,17.47
2022-09-09T21:44:37.933Z,17.46
2022-09-09T21:47:04.662Z,17.43
2022-09-09T21:49:31.117Z,17.42
2022-09-09T21:51:57.868Z,17.35
2022-09-09T21:54:24.407Z,17.35
2022-09-09T21:56:51.046Z,17.28
2022-09-09T21:59:17.844Z,17.31
2022-09-09T22:01:44.352Z,17.29
2022-09-09T22:04:10.861Z,17.27
2022-09-09T22:06:37.954Z,17.19
2022-09-09T22:09:04.396Z,17.14
2022-09-09T22:11:30.939Z,17.15
2022-09-09T22:13:57.547Z,17.10
2022-09-09T22:16:24.476Z,17.12
2022-09-09T22:18:53.948Z,17.09
2022-09-09T22:21:21.056Z,17.09
2022-09-09T22:23:55.805Z,16.85
2022-09-09T22:26:23.805Z,17.05
2022-09-09T22:28:50.772Z,17.03
2022-09-09T22:31:17.311Z,17.03
2022-09-09T22:33:43.837Z,17.01
2022-09-09T22:36:10.263Z,16.97
2022-09-09T22:38:36.779Z,16.96
2022-09-09T22:41:06.025Z,16.95
2022-09-09T22:43:32.477Z,16.93
2022-09-09T22:46:00.116Z,16.94
2022-09-09T22:48:26.602Z,16.93
2022-09-09T22:50:53.041Z,16.91
2022-09-09T22:53:19.471Z,16.84
2022-09-09T22:55:57.729Z,16.67
2022-09-09T22:58:24.570Z,16.86
2022-09-09T23:00:51.035Z,16.86
2022-09-09T23:03:17.915Z,16.83
2022-09-09T23:05:53.436Z,16.81
2022-09-09T23:08:19.899Z,16.78
2022-09-09T23:10:46.321Z,16.77
2022-09-09T23:13:12.807Z,16.76
2022-09-09T23:15:39.316Z,16.69
2022-09-09T23:18:05.880Z,16.71
2022-09-09T23:20:32.346Z,16.71
2022-09-09T23:22:58.827Z,16.68
2022-09-09T23:25:25.271Z,16.64
2022-09-09T23:27:51.766Z,16.64
2022-09-09T23:30:18.287Z,16.61
2022-09-09T23:32:44.723Z,16.60
2022-09-09T23:35:11.208Z,16.58
2022-09-09T23:37:37.688Z,16.48
2022-09-09T23:40:04.472Z,16.54
2022-09-09T23:42:30.974Z,16.55
2022-09-09T23:44:57.412Z,16.54
2022-09-09T23:47:23.965Z,16.54
2022-09-09T23:49:50.398Z,16.53
2022-09-09T23:52:17.063Z,16.50
2022-09-09T23:54:43.732Z,16.52
2022-09-09T23:57:10.277Z,16.50
2022-09-09T23:59:36.700Z,16.49
